Terminal Aerodrome Forecast
Issued by NWS

Home | Current Version | Previous Version | Text Only | Print | Product List | Glossary On
Versions: 1 2 3 4 5 6 7 8 9 10 11 12
973
FTUS42 TJSJ 100544
TAFISX
TAF
TISX 100544Z 1006/1106 07007KT P6SM VCSH SCT022 SCT045
     FM101300 11014G20KT P6SM SCT022 SCT050
     FM102300 08007KT P6SM FEW025=

USA.gov is the U.S. government's official web portal to all federal, state and local government web resources and services.